createdAt,value
2019-04-07T00:01:46.612Z,27.93
2019-04-07T00:04:29.810Z,30.77
2019-04-07T00:07:12.150Z,31.62
2019-04-07T00:09:54.966Z,32.23
2019-04-07T00:12:38.059Z,29.20
2019-04-07T00:15:20.840Z,27.75
2019-04-07T00:18:05.023Z,29.05
2019-04-07T00:20:48.490Z,27.17
2019-04-07T00:23:31.941Z,27.45
2019-04-07T00:26:21.823Z,26.80
2019-04-07T00:29:11.139Z,30.90
2019-04-07T00:34:35.881Z,31.35
2019-04-07T00:37:12.876Z,28.85
2019-04-07T00:40:01.066Z,29.30
2019-04-07T00:42:38.049Z,32.63
2019-04-07T00:45:26.346Z,28.35
2019-04-07T00:50:51.345Z,30.30
2019-04-07T00:53:47.349Z,28.47
2019-04-07T00:56:43.865Z,30.85
2019-04-07T00:59:39.838Z,28.70
2019-04-07T01:02:28.584Z,30.00
2019-04-07T01:05:06.015Z,29.82
2019-04-07T01:07:56.416Z,27.55
2019-04-07T01:10:33.678Z,27.58
2019-04-07T01:13:24.008Z,29.55
2019-04-07T01:16:08.258Z,54.73
2019-04-07T01:18:56.945Z,31.62
2019-04-07T01:21:40.406Z,27.77
2019-04-07T01:24:37.270Z,29.95
2019-04-07T01:27:34.609Z,27.22
2019-04-07T01:30:30.422Z,26.62
2019-04-07T01:33:19.216Z,28.80
2019-04-07T01:35:56.412Z,25.60
2019-04-07T01:38:46.372Z,28.90
2019-04-07T01:41:37.111Z,28.25
2019-04-07T01:44:24.570Z,32.30
2019-04-07T01:47:15.127Z,30.20
2019-04-07T01:50:08.685Z,27.77
2019-04-07T01:52:53.646Z,29.80
2019-04-07T01:55:55.326Z,28.27
2019-04-07T01:58:56.233Z,32.98
2019-04-07T02:01:41.676Z,31.68
2019-04-07T02:04:41.293Z,32.48
2019-04-07T02:07:41.660Z,29.25
2019-04-07T02:10:36.370Z,28.38
2019-04-07T02:13:26.459Z,30.70
2019-04-07T02:16:22.322Z,31.23
2019-04-07T02:19:12.774Z,29.50
2019-04-07T02:21:58.291Z,33.30
2019-04-07T02:24:43.218Z,29.82
2019-04-07T02:27:41.304Z,28.40
2019-04-07T02:30:48.629Z,28.75
2019-04-07T02:33:35.467Z,29.18
2019-04-07T02:36:43.199Z,27.07
2019-04-07T02:39:21.515Z,29.50
2019-04-07T02:42:15.918Z,31.97
2019-04-07T02:45:07.604Z,34.65
2019-04-07T02:48:07.765Z,30.88
2019-04-07T02:51:09.670Z,34.95
2019-04-07T02:53:57.076Z,30.40
2019-04-07T02:57:06.479Z,33.10
2019-04-07T03:02:38.007Z,33.23
2019-04-07T03:05:16.023Z,31.33
2019-04-07T03:08:22.631Z,32.98
2019-04-07T03:11:00.619Z,33.38
2019-04-07T03:13:52.102Z,32.70
2019-04-07T03:16:29.714Z,33.33
2019-04-07T03:19:22.059Z,33.53
2019-04-07T03:22:18.545Z,31.48
2019-04-07T03:27:55.803Z,30.32
2019-04-07T03:31:02.130Z,28.00
2019-04-07T03:33:43.258Z,31.82
2019-04-07T03:37:09.434Z,30.52
2019-04-07T03:39:15.076Z,31.60
2019-04-07T03:42:15.765Z,27.25
2019-04-07T03:45:08.748Z,33.60
2019-04-07T03:47:52.988Z,30.02
2019-04-07T03:51:00.471Z,30.95
2019-04-07T03:53:52.310Z,31.07
2019-04-07T03:56:52.951Z,29.42
2019-04-07T03:59:55.426Z,27.27
2019-04-07T04:02:52.477Z,28.20
2019-04-07T04:05:37.129Z,30.08
2019-04-07T04:08:28.769Z,30.35
2019-04-07T04:11:16.627Z,26.10
2019-04-07T04:14:07.956Z,30.60
2019-04-07T04:16:52.194Z,26.73
2019-04-07T04:19:34.702Z,25.75
2019-04-07T04:22:17.427Z,32.50
2019-04-07T04:25:01.043Z,26.85
2019-04-07T04:27:45.204Z,29.98
2019-04-07T04:30:28.644Z,28.17
2019-04-07T04:33:11.043Z,27.20
2019-04-07T04:35:53.858Z,27.02
2019-04-07T04:38:36.989Z,28.27
2019-04-07T04:41:21.014Z,25.77
2019-04-07T04:44:03.876Z,29.75
2019-04-07T04:46:53.671Z,23.83
2019-04-07T04:49:37.118Z,25.75
2019-04-07T04:52:20.714Z,26.57
2019-04-07T04:55:09.725Z,23.87
2019-04-07T04:57:45.842Z,27.70
2019-04-07T05:00:36.206Z,26.62
2019-04-07T05:03:19.684Z,24.10
2019-04-07T05:06:14.810Z,22.25
2019-04-07T05:09:13.356Z,27.70
2019-04-07T05:12:09.371Z,26.35
2019-04-07T05:15:05.397Z,31.50
2019-04-07T05:18:01.964Z,24.52
2019-04-07T05:20:51.244Z,23.67
2019-04-07T05:23:34.848Z,24.60
2019-04-07T05:26:31.207Z,26.17
2019-04-07T05:29:28.121Z,24.43
2019-04-07T05:32:25.225Z,26.50
2019-04-07T05:35:22.462Z,31.48
2019-04-07T05:38:11.842Z,24.18
2019-04-07T05:40:54.334Z,24.02
2019-04-07T05:43:44.032Z,23.40
2019-04-07T05:46:20.179Z,23.90
2019-04-07T05:49:09.031Z,24.15
2019-04-07T05:51:44.749Z,20.55
2019-04-07T05:54:34.047Z,20.25
2019-04-07T05:57:10.547Z,21.65
2019-04-07T06:00:00.407Z,20.92
2019-04-07T06:02:37.432Z,20.20
2019-04-07T06:05:26.615Z,17.65
2019-04-07T06:10:57.537Z,22.82
2019-04-07T06:13:31.279Z,22.13
2019-04-07T06:16:20.975Z,26.27
2019-04-07T06:19:07.892Z,24.43
2019-04-07T06:22:02.336Z,24.82
2019-04-07T06:24:52.309Z,24.67
2019-04-07T06:27:35.816Z,25.23
2019-04-07T06:30:33.929Z,21.30
2019-04-07T06:33:23.019Z,25.20
2019-04-07T06:36:06.723Z,21.82
2019-04-07T06:39:03.599Z,24.15
2019-04-07T06:42:01.099Z,25.80
2019-04-07T06:44:59.789Z,20.92
2019-04-07T06:47:43.334Z,20.92
2019-04-07T06:50:45.524Z,22.75
2019-04-07T06:53:31.821Z,20.70
2019-04-07T06:59:15.018Z,23.67
2019-04-07T07:02:20.875Z,22.70
2019-04-07T07:05:05.286Z,21.15
2019-04-07T07:07:49.827Z,20.37
2019-04-07T07:10:43.946Z,20.23
2019-04-07T07:13:42.941Z,23.83
2019-04-07T07:16:26.529Z,21.70
2019-04-07T07:19:34.696Z,19.73
2019-04-07T07:22:21.047Z,17.67
2019-04-07T07:25:12.051Z,19.67
2019-04-07T07:27:54.902Z,20.40
2019-04-07T07:30:52.543Z,23.10
2019-04-07T07:33:42.634Z,18.50
2019-04-07T07:36:21.457Z,22.22
2019-04-07T07:39:11.789Z,22.10
2019-04-07T07:41:50.343Z,21.97
2019-04-07T07:44:38.751Z,21.93
2019-04-07T07:47:14.882Z,22.73
2019-04-07T07:50:05.391Z,21.05
2019-04-07T07:52:51.359Z,21.25
2019-04-07T07:55:46.720Z,18.70
2019-04-07T07:58:43.088Z,26.93
2019-04-07T08:01:39.850Z,23.20
2019-04-07T08:04:29.179Z,20.52
2019-04-07T08:07:14.521Z,21.70
2019-04-07T08:10:01.755Z,21.65
2019-04-07T08:12:37.985Z,21.90
2019-04-07T08:15:31.940Z,21.57
2019-04-07T08:18:08.141Z,18.75
2019-04-07T08:20:56.721Z,18.60
2019-04-07T08:23:41.194Z,18.02
2019-04-07T08:26:29.938Z,19.40
2019-04-07T08:29:13.608Z,18.15
2019-04-07T08:32:09.693Z,21.07
2019-04-07T08:35:06.796Z,18.00
2019-04-07T08:37:56.811Z,18.07
2019-04-07T08:40:32.676Z,16.40
2019-04-07T08:43:23.581Z,15.78
2019-04-07T08:46:02.276Z,16.17
2019-04-07T08:48:52.689Z,16.15
2019-04-07T08:51:35.131Z,15.18
2019-04-07T08:54:25.301Z,12.80
2019-04-07T08:57:08.286Z,14.73
2019-04-07T08:59:51.389Z,13.10
2019-04-07T09:02:33.534Z,10.15
2019-04-07T09:10:39.390Z,14.33
2019-04-07T09:13:22.371Z,12.53
2019-04-07T09:16:22.554Z,9.88
2019-04-07T09:19:19.273Z,8.70
2019-04-07T09:22:29.720Z,8.08
2019-04-07T09:25:24.709Z,8.23
2019-04-07T09:28:22.146Z,7.97
2019-04-07T09:31:04.731Z,7.97
2019-04-07T09:33:58.252Z,10.15
2019-04-07T09:36:53.000Z,10.78
2019-04-07T09:39:56.747Z,8.33
2019-04-07T09:42:27.966Z,9.93
2019-04-07T09:45:34.539Z,8.95
2019-04-07T09:48:17.709Z,11.10
2019-04-07T09:51:07.463Z,8.10
2019-04-07T09:54:09.057Z,7.42
2019-04-07T09:57:07.410Z,6.97
2019-04-07T09:59:59.342Z,8.38
2019-04-07T10:02:40.430Z,8.58
2019-04-07T10:05:40.208Z,8.45
2019-04-07T10:08:28.570Z,8.93
2019-04-07T10:11:27.424Z,8.50
2019-04-07T10:14:42.899Z,7.47
2019-04-07T10:17:39.730Z,8.20
2019-04-07T10:20:25.850Z,7.00
2019-04-07T10:23:32.825Z,6.50
2019-04-07T10:26:31.390Z,8.73
2019-04-07T10:29:35.336Z,9.15
2019-04-07T10:32:41.763Z,10.23
2019-04-07T10:35:49.500Z,7.60
2019-04-07T10:38:43.765Z,9.48
2019-04-07T10:41:41.679Z,9.30
2019-04-07T10:44:44.187Z,8.50
2019-04-07T10:48:00.348Z,8.13
2019-04-07T10:50:53.819Z,7.90
2019-04-07T10:53:35.096Z,8.83
2019-04-07T10:56:35.435Z,6.70
2019-04-07T10:59:14.507Z,5.92
2019-04-07T11:02:08.455Z,6.33
2019-04-07T11:04:55.212Z,6.22
2019-04-07T11:07:47.089Z,10.40
2019-04-07T11:10:39.148Z,9.38
2019-04-07T11:13:44.599Z,4.70
2019-04-07T11:16:40.707Z,6.85
2019-04-07T11:19:38.175Z,5.22
2019-04-07T11:22:22.563Z,6.90
2019-04-07T11:25:15.041Z,4.75
2019-04-07T11:27:55.333Z,6.65
2019-04-07T11:30:49.677Z,6.12
2019-04-07T11:33:35.095Z,8.88
2019-04-07T11:36:35.240Z,40.73
2019-04-07T11:39:29.086Z,8.00
2019-04-07T11:42:14.129Z,10.40
2019-04-07T11:45:11.292Z,6.60
2019-04-07T11:47:49.296Z,4.83
2019-04-07T11:50:54.841Z,5.05
2019-04-07T11:53:39.947Z,6.30
2019-04-07T11:56:25.066Z,7.65
2019-04-07T11:59:24.547Z,6.67
2019-04-07T12:02:10.684Z,6.00
2019-04-07T12:04:58.935Z,4.95
2019-04-07T12:10:27.564Z,4.67
2019-04-07T12:13:32.986Z,7.67
2019-04-07T12:16:30.836Z,6.33
2019-04-07T12:19:33.376Z,6.83
2019-04-07T12:22:21.745Z,8.25
2019-04-07T12:25:23.754Z,5.75
2019-04-07T12:28:01.948Z,6.30
2019-04-07T12:30:54.460Z,5.35
2019-04-07T12:34:03.906Z,8.48
2019-04-07T12:37:04.636Z,6.15
2019-04-07T12:40:03.372Z,4.70
2019-04-07T12:43:13.178Z,5.53
2019-04-07T12:46:06.640Z,7.25
2019-04-07T12:48:54.344Z,6.20
2019-04-07T12:51:57.025Z,7.22
2019-04-07T12:54:43.695Z,6.12
2019-04-07T13:00:52.313Z,4.83
2019-04-07T13:03:40.795Z,8.10
2019-04-07T13:06:45.230Z,5.25
2019-04-07T13:09:41.858Z,4.12
2019-04-07T13:12:24.805Z,6.15
2019-04-07T13:15:20.575Z,4.25
2019-04-07T13:18:10.999Z,3.55
2019-04-07T13:21:09.009Z,5.67
2019-04-07T13:24:10.918Z,6.08
2019-04-07T13:27:17.973Z,6.90
2019-04-07T13:30:01.029Z,5.22
2019-04-07T13:33:04.644Z,4.85
2019-04-07T13:35:50.856Z,3.72
2019-04-07T13:38:43.514Z,2.95
2019-04-07T13:41:41.676Z,4.58
2019-04-07T13:44:27.233Z,5.45
2019-04-07T13:47:31.929Z,3.80
2019-04-07T13:50:30.002Z,3.85
2019-04-07T13:53:20.709Z,4.92
2019-04-07T13:56:28.639Z,3.17
2019-04-07T13:59:27.219Z,4.62
2019-04-07T14:02:30.305Z,7.17
2019-04-07T14:05:11.166Z,5.03
2019-04-07T14:08:06.032Z,4.53
2019-04-07T14:10:43.991Z,3.50
2019-04-07T14:13:52.302Z,5.83
2019-04-07T14:16:31.259Z,6.05
2019-04-07T14:19:40.144Z,2.33
2019-04-07T14:22:34.299Z,4.78
2019-04-07T14:25:26.750Z,2.87
2019-04-07T14:34:23.016Z,3.72
2019-04-07T14:37:26.439Z,5.55
2019-04-07T14:40:40.957Z,2.95
2019-04-07T14:43:50.918Z,4.05
2019-04-07T14:46:58.719Z,3.80
2019-04-07T14:49:57.242Z,3.15
2019-04-07T14:52:55.342Z,4.83
2019-04-07T14:55:56.046Z,4.90
2019-04-07T14:58:51.418Z,3.22
2019-04-07T15:04:26.886Z,5.40
2019-04-07T15:07:21.577Z,96.60
2019-04-07T15:10:09.523Z,5.03
2019-04-07T15:13:03.175Z,6.03
2019-04-07T15:15:39.970Z,5.95
2019-04-07T15:18:30.714Z,4.58
2019-04-07T15:21:06.818Z,6.22
2019-04-07T15:23:57.223Z,4.78
2019-04-07T15:26:34.736Z,5.62
2019-04-07T15:29:24.281Z,3.87
2019-04-07T15:32:00.321Z,4.22
2019-04-07T15:34:43.666Z,4.10
2019-04-07T15:37:34.688Z,6.10
2019-04-07T15:40:33.858Z,5.08
2019-04-07T15:43:28.949Z,7.17
2019-04-07T15:46:19.179Z,7.20
2019-04-07T15:48:56.703Z,9.08
2019-04-07T15:51:45.720Z,7.10
2019-04-07T15:54:28.610Z,9.33
2019-04-07T15:57:20.203Z,7.28
2019-04-07T16:00:03.923Z,11.45
2019-04-07T16:02:46.162Z,9.13
2019-04-07T16:05:29.993Z,8.13
2019-04-07T16:08:13.622Z,6.50
2019-04-07T16:10:56.718Z,9.48
2019-04-07T16:13:39.162Z,6.85
2019-04-07T16:16:26.553Z,9.35
2019-04-07T16:19:08.790Z,9.50
2019-04-07T16:21:51.451Z,9.25
2019-04-07T16:24:34.704Z,9.60
2019-04-07T16:27:17.394Z,10.38
2019-04-07T16:30:01.112Z,11.10
2019-04-07T16:32:59.700Z,10.35
2019-04-07T16:35:56.321Z,9.45
2019-04-07T16:38:51.110Z,9.48
2019-04-07T16:41:44.171Z,10.60
2019-04-07T16:44:19.066Z,8.65
2019-04-07T16:47:17.799Z,11.80
2019-04-07T16:49:52.427Z,13.13
2019-04-07T16:52:43.102Z,11.83
2019-04-07T16:55:48.958Z,11.53
2019-04-07T16:58:37.658Z,10.20
2019-04-07T17:01:26.607Z,13.00
2019-04-07T17:04:22.673Z,11.10
2019-04-07T17:07:28.537Z,13.05
2019-04-07T17:10:28.860Z,10.78
2019-04-07T17:13:32.135Z,12.88
2019-04-07T17:16:22.891Z,12.82
2019-04-07T17:19:09.847Z,11.25
2019-04-07T17:21:53.419Z,11.50
2019-04-07T17:24:49.846Z,10.95
2019-04-07T17:27:45.382Z,12.43
2019-04-07T17:30:41.217Z,10.20
2019-04-07T17:33:38.268Z,10.85
2019-04-07T17:36:35.366Z,13.30
2019-04-07T17:39:37.699Z,14.23
2019-04-07T17:42:27.247Z,18.20
2019-04-07T17:45:21.253Z,16.75
2019-04-07T17:48:37.361Z,15.53
2019-04-07T17:51:12.846Z,16.07
2019-04-07T17:54:21.399Z,16.05
2019-04-07T17:57:04.005Z,11.93
2019-04-07T18:00:02.807Z,11.15
2019-04-07T18:02:53.219Z,10.05
2019-04-07T18:05:45.333Z,12.05
2019-04-07T18:08:41.740Z,17.52
2019-04-07T18:11:31.793Z,11.63
2019-04-07T18:14:54.885Z,9.80
2019-04-07T18:17:51.982Z,13.48
2019-04-07T18:20:56.072Z,13.35
2019-04-07T18:23:49.482Z,12.37
2019-04-07T18:26:27.419Z,10.05
2019-04-07T18:29:34.192Z,15.72
2019-04-07T18:32:18.689Z,12.25
2019-04-07T18:35:06.471Z,10.63
2019-04-07T18:38:19.542Z,9.40
2019-04-07T18:41:16.635Z,12.63
2019-04-07T18:44:13.908Z,12.37
2019-04-07T18:46:52.744Z,9.98
2019-04-07T18:50:03.966Z,12.82
2019-04-07T18:52:58.304Z,12.68
2019-04-07T18:55:55.775Z,12.85
2019-04-07T18:58:59.740Z,12.15
2019-04-07T19:01:57.830Z,10.30
2019-04-07T19:04:43.428Z,11.68
2019-04-07T19:07:50.478Z,13.45
2019-04-07T19:10:45.461Z,12.90
2019-04-07T19:13:37.076Z,10.08
2019-04-07T19:16:29.851Z,14.55
2019-04-07T19:19:14.710Z,13.55
2019-04-07T19:22:08.858Z,14.07
2019-04-07T19:24:47.522Z,14.18
2019-04-07T19:27:55.351Z,12.78
2019-04-07T19:30:39.102Z,10.13
2019-04-07T19:33:36.046Z,10.85
2019-04-07T19:36:18.818Z,12.75
2019-04-07T19:39:25.070Z,13.30
2019-04-07T19:42:20.090Z,11.80
2019-04-07T19:45:00.383Z,11.20
2019-04-07T19:48:09.798Z,12.85
2019-04-07T19:51:03.091Z,13.10
2019-04-07T19:54:09.078Z,13.53
2019-04-07T19:57:09.730Z,10.18
2019-04-07T19:59:57.014Z,12.60
2019-04-07T20:02:51.135Z,12.03
2019-04-07T20:05:38.707Z,15.45
2019-04-07T20:08:40.372Z,14.87
2019-04-07T20:11:43.757Z,11.40
2019-04-07T20:14:44.979Z,14.43
2019-04-07T20:17:35.669Z,12.85
2019-04-07T20:20:38.490Z,12.78
2019-04-07T20:23:39.609Z,12.35
2019-04-07T20:26:46.536Z,12.30
2019-04-07T20:29:41.611Z,14.83
2019-04-07T20:32:40.186Z,11.50
2019-04-07T20:35:33.950Z,11.88
2019-04-07T20:38:19.099Z,13.75
2019-04-07T20:41:19.698Z,13.85
2019-04-07T20:44:36.577Z,13.83
2019-04-07T20:47:40.408Z,16.90
2019-04-07T20:50:24.576Z,13.20
2019-04-07T20:53:21.783Z,14.47
2019-04-07T20:56:01.879Z,17.30
2019-04-07T20:58:59.534Z,16.75
2019-04-07T21:02:03.138Z,16.82
2019-04-07T21:04:44.023Z,15.90
2019-04-07T21:07:33.735Z,15.48
2019-04-07T21:10:24.311Z,15.30
2019-04-07T21:13:09.781Z,17.77
2019-04-07T21:16:03.865Z,15.63
2019-04-07T21:18:48.996Z,13.88
2019-04-07T21:21:52.639Z,16.00
2019-04-07T21:24:31.538Z,14.83
2019-04-07T21:27:41.014Z,14.20
2019-04-07T21:30:20.715Z,14.73
2019-04-07T21:33:13.211Z,18.05
2019-04-07T21:36:14.756Z,16.30
2019-04-07T21:38:58.321Z,13.18
2019-04-07T21:41:46.428Z,15.88
2019-04-07T21:44:50.052Z,17.75
2019-04-07T21:47:40.730Z,18.05
2019-04-07T21:50:42.501Z,15.32
2019-04-07T21:53:40.969Z,19.42
2019-04-07T21:56:44.207Z,19.75
2019-04-07T21:59:39.628Z,16.23
2019-04-07T22:02:29.941Z,21.20
2019-04-07T22:05:07.691Z,18.27
2019-04-07T22:08:10.210Z,21.17
2019-04-07T22:10:51.366Z,20.00
2019-04-07T22:13:38.853Z,18.82
2019-04-07T22:16:16.376Z,16.15
2019-04-07T22:19:10.276Z,20.17
2019-04-07T22:21:44.504Z,17.75
2019-04-07T22:24:35.931Z,19.05
2019-04-07T22:27:12.578Z,18.82
2019-04-07T22:30:06.011Z,19.82
2019-04-07T22:32:50.887Z,19.80
2019-04-07T22:35:45.341Z,20.60
2019-04-07T22:38:34.242Z,18.92
2019-04-07T22:41:11.243Z,19.60
2019-04-07T22:43:59.903Z,22.58
2019-04-07T22:49:28.469Z,22.87
2019-04-07T22:52:03.411Z,24.47
2019-04-07T22:54:53.602Z,23.50
2019-04-07T22:57:37.509Z,20.75
2019-04-07T23:00:33.689Z,22.58
2019-04-07T23:03:23.986Z,25.05
2019-04-07T23:06:07.636Z,21.10
2019-04-07T23:08:58.033Z,20.88
2019-04-07T23:11:35.349Z,22.93
2019-04-07T23:14:25.397Z,21.57
2019-04-07T23:17:08.625Z,21.10
2019-04-07T23:19:58.868Z,22.35
2019-04-07T23:22:42.538Z,25.88
2019-04-07T23:25:32.243Z,22.15
2019-04-07T23:28:08.268Z,22.75
2019-04-07T23:30:57.532Z,21.97
2019-04-07T23:33:34.625Z,20.68
2019-04-07T23:36:24.196Z,20.57
2019-04-07T23:39:07.559Z,23.32
2019-04-07T23:42:02.932Z,26.07
2019-04-07T23:44:53.157Z,26.52
2019-04-07T23:47:29.077Z,23.62
2019-04-07T23:52:53.920Z,25.50
2019-04-07T23:55:36.170Z,28.42
2019-04-07T23:58:19.118Z,26.82
